Uvalde Research's Hourly Summary for Friday, May 11, 2018
Hour Temp
(f)
RH
(%)
Solar Rad.
(MJ/m2)
Rainfall
(in)
Wind
(mph)
5/11/2018 12:00 AM 72 70 0 0 2.69
5/11/2018 1:00 AM 70 78 0 0 2.51
5/11/2018 2:00 AM 68 85 0 0 1.76
5/11/2018 3:00 AM 66 91 0 0 1.92
5/11/2018 4:00 AM 65 94 0 0 1.93
5/11/2018 5:00 AM 64 96 0 0 1.93
5/11/2018 6:00 AM 64 98 0 0 2.76
5/11/2018 7:00 AM 65 99 0.12 0 4.07
5/11/2018 8:00 AM 68 95 0.52 0 4.41
5/11/2018 9:00 AM 72 80 1.4 0 4.99
5/11/2018 10:00 AM 75 71 1.69 0 4.68
5/11/2018 11:00 AM 78 64 2.44 0 4.59
5/11/2018 12:00 PM 80 61 2.55 0 4.17
5/11/2018 1:00 PM 83 55 2.89 0 4.41
5/11/2018 2:00 PM 85 49 2.55 0 4.5
5/11/2018 3:00 PM 87 44 2.68 0 4.54
5/11/2018 4:00 PM 88 40 2.24 0 4.82
5/11/2018 5:00 PM 89 37 1.66 0 4.96
5/11/2018 6:00 PM 89 36 0.99 0 4.88
5/11/2018 7:00 PM 87 36 0.32 0 4.08
5/11/2018 8:00 PM 82 44 0.01 0 1.57
5/11/2018 9:00 PM 79 58 0 0 4.25
5/11/2018 10:00 PM 78 69 0 0 4.36
5/11/2018 11:00 PM 76 76 0 0 4.28
Data Summary 76 67 22.06 0.00 3.71